Time;durP1;ratioP1;P1;durP2;ratioP2;P2;SDS_P1;SDS_P2;PMS_P1;PMS_P2;Temp;Humidity;BMP_temperature;BMP_pressure;BME280_temperature;BME280_humidity;BME280_pressure;Samples;Min_cycle;Max_cycle;Signal;HPM_P1;HPM_P2
2022/06/22 00:49:54;;;;;;;6.57;3.67;;;;;;;11.53;85.38;101418.34;6332725;22;20011;-89
2022/06/22 00:52:32;;;;;;;9.00;4.10;;;;;;;11.45;85.29;101414.13;6333649;22;20075;-89
2022/06/22 00:54:58;;;;;;;4.60;3.17;;;;;;;11.41;85.25;101413.00;6332947;22;20006;-90
2022/06/22 00:57:31;;;;;;;5.45;4.13;;;;;;;11.37;85.67;101409.16;6332787;22;20003;-90
2022/06/22 01:00:15;;;;;;;4.03;3.30;;;;;;;11.26;85.41;101404.63;6334333;22;20375;-89
2022/06/22 01:02:53;;;;;;;8.10;3.75;;;;;;;11.27;85.81;101416.97;6333479;22;20029;-90
2022/06/22 01:05:29;;;;;;;5.57;3.60;;;;;;;11.27;86.28;101409.75;6333558;22;19999;-90
2022/06/22 01:08:20;;;;;;;5.28;3.90;;;;;;;11.21;86.17;101416.06;6331843;22;20014;-90
2022/06/22 01:10:55;;;;;;;6.75;3.47;;;;;;;11.24;86.22;101422.81;6314867;22;20021;-90
2022/06/22 01:13:44;;;;;;;6.07;3.92;;;;;;;11.20;86.49;101422.47;6330686;22;20496;-90
2022/06/22 01:16:20;;;;;;;6.20;4.10;;;;;;;11.22;86.11;101414.19;6333314;22;20010;-89
2022/06/22 01:18:55;;;;;;;5.63;3.35;;;;;;;11.17;86.61;101405.00;6332488;22;20003;-90
2022/06/22 01:21:30;;;;;;;3.95;2.92;;;;;;;11.16;86.97;101406.06;6332797;22;19994;-90
2022/06/22 01:24:05;;;;;;;6.63;3.83;;;;;;;11.13;86.89;101405.69;6331679;22;19995;-89
2022/06/22 01:26:37;;;;;;;4.32;3.33;;;;;;;11.07;86.56;101399.41;6331509;22;20011;-90
2022/06/22 01:29:12;;;;;;;7.43;3.33;;;;;;;11.02;86.37;101401.16;6333496;22;20329;-90
2022/06/22 01:31:55;;;;;;;12.30;4.45;;;;;;;10.99;86.70;101399.78;6332567;22;20003;-89
2022/06/22 01:34:24;;;;;;;7.45;3.60;;;;;;;11.01;87.46;101402.22;6332430;22;20430;-90
2022/06/22 01:36:50;;;;;;;5.47;3.30;;;;;;;11.01;87.58;101397.66;6332703;22;19999;-90
2022/06/22 01:39:15;;;;;;;8.57;4.03;;;;;;;11.01;87.36;101400.34;6332150;22;20003;-89
2022/06/22 01:41:47;;;;;;;6.72;3.67;;;;;;;11.02;87.61;101406.53;6330912;22;19999;-90
2022/06/22 01:44:35;;;;;;;6.38;3.70;;;;;;;11.01;87.31;101400.34;6332322;22;20003;-88
2022/06/22 01:47:32;;;;;;;6.72;3.33;;;;;;;10.89;87.69;101399.53;6330591;22;20014;-90
2022/06/22 01:50:03;;;;;;;5.82;3.45;;;;;;;10.85;87.47;101398.38;6333418;22;20423;-90
2022/06/22 01:52:32;;;;;;;4.20;3.28;;;;;;;10.82;87.41;101393.50;6331733;22;19999;-90
2022/06/22 01:55:10;;;;;;;4.80;3.55;;;;;;;10.74;87.39;101400.00;6330326;22;20438;-90
2022/06/22 01:57:44;;;;;;;5.20;2.97;;;;;;;10.68;87.25;101394.75;6333801;22;20002;-89
2022/06/22 02:00:19;;;;;;;5.18;3.40;;;;;;;10.59;87.57;101392.44;6334214;22;20390;-90
2022/06/22 02:02:49;;;;;;;7.75;3.88;;;;;;;10.59;87.98;101392.44;6331963;22;20029;-90
2022/06/22 02:05:22;;;;;;;8.90;4.10;;;;;;;10.56;88.05;101392.88;6332838;22;20052;-90
2022/06/22 02:08:01;;;;;;;5.03;3.83;;;;;;;10.50;87.98;101391.16;6333460;22;20038;-90
2022/06/22 02:10:37;;;;;;;4.40;3.35;;;;;;;10.48;88.18;101389.75;6332704;22;20006;-90
2022/06/22 02:13:25;;;;;;;6.70;3.47;;;;;;;10.44;88.34;101384.03;6333998;22;19999;-89
2022/06/22 02:15:59;;;;;;;3.80;3.10;;;;;;;10.46;88.58;101376.59;6334877;22;20025;-89
2022/06/22 02:18:46;;;;;;;6.32;3.10;;;;;;;10.44;88.59;101384.03;6334439;22;19999;-90
2022/06/22 02:21:31;;;;;;;5.13;3.13;;;;;;;10.42;88.55;101372.75;6334801;22;20006;-90
2022/06/22 02:24:27;;;;;;;6.93;3.00;;;;;;;10.42;88.49;101380.78;6330305;22;20002;-90
2022/06/22 02:26:56;;;;;;;5.03;3.03;;;;;;;10.44;88.82;101375.19;6317021;22;20010;-90
2022/06/22 02:29:26;;;;;;;6.85;3.67;;;;;;;10.44;88.83;101381.38;6333235;22;20006;-90
2022/06/22 02:31:57;;;;;;;6.18;3.80;;;;;;;10.44;88.56;101377.88;6333750;22;20006;-90
2022/06/22 02:34:24;;;;;;;7.22;4.28;;;;;;;10.41;88.47;101379.16;6333314;22;20089;-90
2022/06/22 02:36:53;;;;;;;6.85;4.15;;;;;;;10.39;88.60;101381.22;6333919;22;20018;-90
2022/06/22 02:39:23;;;;;;;6.53;3.83;;;;;;;10.37;88.45;101371.78;6331899;22;19999;-90
2022/06/22 02:44:39;;;;;;;6.65;3.80;;;;;;;10.34;88.88;101380.28;6333509;22;20143;-90
2022/06/22 02:47:42;;;;;;;7.68;3.90;;;;;;;10.24;88.70;101378.19;6334791;22;19999;-90
2022/06/22 02:50:53;;;;;;;5.68;2.95;;;;;;;10.13;88.98;101384.28;6335229;22;20078;-89
2022/06/22 02:53:27;;;;;;;5.03;3.83;;;;;;;10.18;88.78;101387.09;6273040;22;20019;-89
2022/06/22 02:55:54;;;;;;;5.60;3.23;;;;;;;10.19;89.08;101389.53;6333186;22;20342;-90
2022/06/22 02:58:30;;;;;;;4.80;3.47;;;;;;;10.17;89.27;101396.19;6332591;22;20144;-90
2022/06/22 03:00:59;;;;;;;6.57;3.17;;;;;;;10.19;89.32;101386.88;6333613;22;19995;-90
2022/06/22 03:03:24;;;;;;;4.50;3.53;;;;;;;10.19;89.43;101386.88;6332289;22;20026;-90
2022/06/22 03:05:53;;;;;;;7.10;3.60;;;;;;;10.18;89.42;101384.41;6333025;22;20009;-90
2022/06/22 03:08:19;;;;;;;8.15;3.78;;;;;;;10.20;89.73;101379.66;6333687;22;20010;-90
2022/06/22 03:10:49;;;;;;;4.45;3.42;;;;;;;10.18;89.79;101382.56;6333506;22;20430;-90
2022/06/22 03:13:24;;;;;;;8.50;4.03;;;;;;;10.18;89.96;101379.06;6333520;22;20002;-90
2022/06/22 03:15:50;;;;;;;6.20;3.60;;;;;;;10.19;89.54;101369.97;6334599;22;20025;-90
2022/06/22 03:18:24;;;;;;;4.65;3.50;;;;;;;10.19;89.51;101369.97;6333146;22;19998;-89
2022/06/22 03:20:58;;;;;;;9.63;4.43;;;;;;;10.21;90.02;101371.41;6331864;22;19999;-90
2022/06/22 03:23:32;;;;;;;7.07;4.43;;;;;;;10.26;90.39;101370.75;6333059;22;20035;-90
2022/06/22 03:26:11;;;;;;;6.45;3.83;;;;;;;10.32;90.47;101359.09;6333609;22;20010;-90
2022/06/22 03:28:45;;;;;;;5.43;3.88;;;;;;;10.44;90.90;101369.84;6333830;22;20011;-90
2022/06/22 03:31:18;;;;;;;6.15;3.80;;;;;;;10.54;90.82;101362.00;6333075;22;20015;-90
2022/06/22 03:34:09;;;;;;;5.70;4.00;;;;;;;10.54;90.10;101372.72;6332625;22;20021;-89
2022/06/22 03:36:47;;;;;;;6.53;4.05;;;;;;;10.63;90.59;101357.13;6330262;22;20491;-89
2022/06/22 03:39:17;;;;;;;5.03;3.90;;;;;;;10.72;90.37;101363.75;6334600;22;19998;-90
2022/06/22 03:41:56;;;;;;;9.40;3.85;;;;;;;10.80;90.24;101360.75;6332370;22;20002;-89
2022/06/22 03:44:38;;;;;;;9.05;4.88;;;;;;;10.88;90.25;101353.16;6331996;22;20002;-90
2022/06/22 03:47:14;;;;;;;7.10;4.55;;;;;;;10.99;90.50;101348.81;6334300;22;20338;-90
2022/06/22 03:50:21;;;;;;;8.00;4.05;;;;;;;11.04;90.62;101351.59;6331752;22;20519;-90
2022/06/22 03:53:09;;;;;;;7.80;4.50;;;;;;;11.14;90.60;101349.16;6332759;22;20149;-90
2022/06/22 03:55:42;;;;;;;8.98;4.30;;;;;;;11.25;90.27;101354.72;6333370;22;20002;-90
2022/06/22 03:58:10;;;;;;;7.15;4.03;;;;;;;11.36;89.83;101354.69;6332328;22;20013;-90
2022/06/22 04:00:38;;;;;;;6.70;3.80;;;;;;;11.49;89.91;101361.66;6331150;22;20068;-90
2022/06/22 04:03:05;;;;;;;6.63;4.03;;;;;;;11.58;89.36;101354.84;6334037;22;20334;-90
2022/06/22 04:05:45;;;;;;;4.95;3.65;;;;;;;11.66;89.13;101351.75;6330096;22;20348;-90
2022/06/22 04:08:19;;;;;;;8.38;4.63;;;;;;;11.81;89.29;101353.94;6334022;22;19995;-90
2022/06/22 04:10:57;;;;;;;18.95;7.50;;;;;;;11.94;89.29;101359.00;6332410;22;19999;-91
2022/06/22 04:13:31;;;;;;;23.95;9.35;;;;;;;12.05;88.86;101358.13;6332272;22;20302;-90
2022/06/22 04:16:08;;;;;;;21.48;9.18;;;;;;;12.14;88.47;101355.03;6334303;22;20002;-91
2022/06/22 04:18:44;;;;;;;16.52;8.00;;;;;;;12.23;88.36;101353.59;6334011;22;20010;-91
2022/06/22 04:21:13;;;;;;;16.25;7.18;;;;;;;12.35;87.82;101347.06;6333009;22;20505;-90
2022/06/22 04:23:47;;;;;;;19.60;7.00;;;;;;;12.46;87.44;101347.22;6334009;22;20481;-91
2022/06/22 04:26:24;;;;;;;15.50;7.07;;;;;;;12.56;87.03;101339.28;6330812;22;20055;-90
2022/06/22 04:28:56;;;;;;;11.43;6.93;;;;;;;12.67;86.98;101341.09;6333345;22;20003;-91
2022/06/22 04:31:31;;;;;;;11.90;6.47;;;;;;;12.80;86.86;101343.44;6332717;22;19999;-91
2022/06/22 04:34:13;;;;;;;9.98;5.82;;;;;;;12.93;86.80;101335.00;6332994;22;20429;-91
2022/06/22 04:36:47;;;;;;;9.90;5.88;;;;;;;13.10;86.55;101331.41;6333867;22;20013;-90
2022/06/22 04:39:39;;;;;;;10.23;5.20;;;;;;;13.21;86.70;101330.53;6333187;22;20001;-91
2022/06/22 04:42:05;;;;;;;8.30;4.82;;;;;;;13.40;85.99;101334.50;6331947;22;20460;-91
2022/06/22 04:44:34;;;;;;;8.25;4.70;;;;;;;13.51;85.91;101325.50;6330162;22;20003;-90
2022/06/22 04:47:26;;;;;;;7.57;4.95;;;;;;;13.64;85.79;101326.94;6334759;22;20003;-91
2022/06/22 04:50:16;;;;;;;18.60;4.85;;;;;;;13.80;85.42;101334.09;6333688;22;20011;-91
2022/06/22 04:52:48;;;;;;;6.45;4.55;;;;;;;13.96;85.46;101339.63;6332239;22;20407;-91
2022/06/22 04:55:19;;;;;;;8.27;4.50;;;;;;;14.08;85.19;101342.97;6333725;22;20121;-90
2022/06/22 04:57:50;;;;;;;6.85;4.68;;;;;;;14.19;84.75;101342.81;6333318;22;20003;-91
2022/06/22 05:00:20;;;;;;;8.20;4.45;;;;;;;14.31;84.42;101349.91;6333001;22;19995;-91
2022/06/22 05:02:50;;;;;;;4.88;4.00;;;;;;;14.39;84.09;101354.81;6333824;22;20027;-91
2022/06/22 05:05:22;;;;;;;5.65;4.22;;;;;;;14.48;83.90;101354.09;6333380;22;19995;-91
2022/06/22 05:07:55;;;;;;;7.65;4.03;;;;;;;14.62;84.02;101364.44;6332866;22;20032;-91
2022/06/22 05:10:44;;;;;;;7.03;3.37;;;;;;;14.73;83.75;101356.16;6332094;22;20048;-91
2022/06/22 05:13:16;;;;;;;6.82;4.10;;;;;;;14.89;83.35;101361.63;6332542;22;20497;-92
2022/06/22 05:15:44;;;;;;;5.85;3.90;;;;;;;14.98;83.04;101351.97;6333504;22;20552;-91
2022/06/22 05:18:43;;;;;;;8.18;3.60;;;;;;;15.03;82.42;101352.00;6332633;22;20006;-92
2022/06/22 05:21:09;;;;;;;5.90;3.80;;;;;;;15.18;81.94;101354.75;6266423;22;20033;-91
2022/06/22 05:23:34;;;;;;;7.43;2.95;;;;;;;15.26;81.72;101356.13;6336438;22;20006;-91
2022/06/22 05:26:05;;;;;;;8.32;3.53;;;;;;;15.34;81.38;101356.44;6336308;22;20003;-91
2022/06/22 05:28:36;;;;;;;7.20;3.35;;;;;;;15.42;81.05;101364.03;6337509;22;20031;-92
2022/06/22 05:31:10;;;;;;;6.28;3.17;;;;;;;15.56;80.82;101363.53;6339049;22;20018;-91
2022/06/22 05:33:44;;;;;;;5.03;3.20;;;;;;;15.70;81.14;101362.78;6339181;22;20145;-91
2022/06/22 05:36:14;;;;;;;6.93;3.00;;;;;;;15.83;79.75;101366.88;6339642;22;20022;-92
2022/06/22 05:38:45;;;;;;;5.78;3.10;;;;;;;15.94;79.09;101367.69;6338767;22;19999;-92
2022/06/22 05:41:22;;;;;;;5.72;3.42;;;;;;;16.06;78.89;101365.53;6338890;22;19995;-92
2022/06/22 05:43:48;;;;;;;4.72;2.83;;;;;;;16.18;78.08;101370.69;6339015;22;20081;-92
2022/06/22 05:46:15;;;;;;;5.80;3.28;;;;;;;16.28;77.39;101370.69;6338316;22;20009;-92
2022/06/22 05:48:47;;;;;;;10.07;3.38;;;;;;;16.37;77.09;101374.47;6338373;22;20002;-92
2022/06/22 05:51:37;;;;;;;6.65;3.50;;;;;;;16.48;75.89;101376.06;6339023;22;20490;-91
2022/06/22 05:54:14;;;;;;;4.28;2.60;;;;;;;16.61;74.72;101385.53;6336758;22;20003;-92
2022/06/22 05:56:48;;;;;;;5.10;2.28;;;;;;;16.73;74.50;101375.28;6338284;22;20079;-92
2022/06/22 05:59:24;;;;;;;8.88;2.90;;;;;;;16.85;73.51;101383.06;6338918;22;20544;-92
2022/06/22 06:02:16;;;;;;;2.95;1.88;;;;;;;16.89;70.01;101389.59;6338460;22;20085;-92
2022/06/22 06:04:52;;;;;;;3.42;1.75;;;;;;;17.02;69.36;101391.69;6338210;22;20022;-92
2022/06/22 06:07:30;;;;;;;5.18;1.50;;;;;;;17.14;69.05;101388.69;6338087;22;20085;-92
2022/06/22 06:09:56;;;;;;;2.92;1.10;;;;;;;17.22;68.32;101394.31;6338806;22;20075;-92
2022/06/22 06:12:27;;;;;;;3.30;1.65;;;;;;;17.24;66.63;101387.84;6339340;22;20022;-92
2022/06/22 06:14:54;;;;;;;4.50;1.60;;;;;;;17.32;66.78;101396.19;6338867;22;20077;-92
2022/06/22 06:17:29;;;;;;;3.38;1.40;;;;;;;17.35;65.54;101392.94;6339897;22;19999;-92
2022/06/22 06:19:58;;;;;;;2.38;1.35;;;;;;;17.45;65.24;101400.22;6339439;22;20051;-92
2022/06/22 06:22:30;;;;;;;2.67;1.70;;;;;;;17.51;64.99;101401.81;6339188;22;20007;-92
2022/06/22 21:56:09;;;;;;;16.58;8.15;;;;;;;16.43;68.38;101459.94;6373010;22;20017;-91
2022/06/22 21:58:35;;;;;;;16.58;8.18;;;;;;;16.39;68.79;101453.44;6398499;22;20067;-92
2022/06/22 22:01:30;;;;;;;15.00;8.15;;;;;;;16.28;69.33;101458.00;6398933;22;20002;-91
2022/06/22 22:04:03;;;;;;;19.45;8.88;;;;;;;16.32;69.19;101458.28;6393477;22;20452;-91
2022/06/22 22:06:54;;;;;;;16.60;8.18;;;;;;;16.25;69.20;101461.25;6398729;22;20030;-89
2022/06/22 22:09:32;;;;;;;13.60;7.15;;;;;;;16.28;69.17;101458.00;6395013;22;20425;-89
2022/06/22 22:12:11;;;;;;;15.65;8.68;;;;;;;16.28;69.23;101457.19;6394681;22;20006;-89
2022/06/22 22:14:43;;;;;;;14.73;8.30;;;;;;;16.29;69.50;101461.53;6394655;22;20099;-89
2022/06/22 22:17:27;;;;;;;15.77;7.43;;;;;;;16.20;69.59;101463.16;6396252;22;20005;-89
2022/06/22 22:19:58;;;;;;;17.42;8.27;;;;;;;16.23;69.60;101465.31;6396200;22;20355;-89
2022/06/22 22:22:31;;;;;;;20.40;7.90;;;;;;;16.20;69.62;101460.44;6396017;22;20508;-89
2022/06/22 22:25:24;;;;;;;18.20;8.60;;;;;;;16.09;69.92;101461.50;6396046;22;20436;-89
2022/06/22 22:27:54;;;;;;;13.93;7.85;;;;;;;16.10;70.27;101460.41;6395305;22;20506;-89
2022/06/22 22:30:27;;;;;;;16.80;8.18;;;;;;;16.05;70.27;101468.53;6396498;22;20002;-89
2022/06/22 22:32:53;;;;;;;15.93;7.90;;;;;;;16.02;70.45;101473.38;6394961;22;20410;-89
2022/06/22 22:35:40;;;;;;;;;;;;;;;;;;;;;
2022/06/22 22:38:32;;;;;;;16.60;7.88;;;;;;;15.93;70.85;101479.56;6385165;22;20053;-89
2022/06/22 22:41:15;;;;;;;;;;;;;;;;;;;;;
2022/06/22 22:43:53;;;;;;;15.90;7.95;;;;;;;15.80;71.69;101482.75;6395073;22;20072;-89
2022/06/22 22:46:27;;;;;;;14.88;8.10;;;;;;;15.79;71.71;101479.25;6395861;22;20013;-89
2022/06/22 22:49:04;;;;;;;19.92;7.53;;;;;;;15.71;71.98;101471.66;6393801;22;20013;-89
2022/06/22 22:51:51;;;;;;;17.25;7.70;;;;;;;15.62;72.32;101479.47;6394209;22;20055;-89
2022/06/22 22:54:30;;;;;;;20.55;8.25;;;;;;;15.62;72.37;101470.56;6394895;22;20018;-89
2022/06/22 22:57:21;;;;;;;19.13;7.95;;;;;;;15.49;72.74;101479.09;6394149;22;20033;-89
2022/06/22 22:59:50;;;;;;;17.05;8.32;;;;;;;15.48;72.61;101480.19;6367306;22;20002;-89
2022/06/22 23:02:34;;;;;;;17.83;8.05;;;;;;;15.40;73.00;101482.28;6394570;22;20081;-88
2022/06/22 23:05:07;;;;;;;17.38;7.78;;;;;;;15.38;73.30;101473.63;6394292;22;20001;-88
2022/06/22 23:07:33;;;;;;;16.08;8.32;;;;;;;15.35;73.97;101479.56;6395868;22;20009;-88
2022/06/22 23:10:18;;;;;;;15.40;8.65;;;;;;;15.30;73.85;101481.44;6395676;22;20449;-89
2022/06/22 23:12:43;;;;;;;17.33;8.32;;;;;;;15.27;74.24;101480.06;6367475;22;20009;-89
2022/06/22 23:15:10;;;;;;;13.15;8.27;;;;;;;15.22;74.23;101476.50;6395336;22;20030;-88
2022/06/22 23:17:37;;;;;;;16.25;8.50;;;;;;;15.20;74.51;101478.66;6395166;22;20001;-89
2022/06/22 23:20:04;;;;;;;13.10;8.88;;;;;;;15.17;74.27;101481.91;6394438;22;19993;-88
2022/06/22 23:22:36;;;;;;;15.57;9.00;;;;;;;15.08;74.68;101481.56;6395447;22;19997;-88
2022/06/22 23:25:13;;;;;;;15.32;8.35;;;;;;;14.99;74.98;101472.34;6394059;22;20526;-88
2022/06/22 23:27:40;;;;;;;13.90;8.60;;;;;;;15.02;74.93;101477.19;6396364;22;20005;-88
2022/06/22 23:30:19;;;;;;;17.23;8.18;;;;;;;14.93;75.08;101478.78;6394660;22;20002;-88
2022/06/22 23:32:47;;;;;;;17.05;8.02;;;;;;;14.94;75.09;101483.91;6394501;22;19997;-89
2022/06/22 23:35:15;;;;;;;14.15;8.25;;;;;;;14.91;75.25;101487.13;6391809;22;20333;-88
2022/06/22 23:37:51;;;;;;;17.13;8.35;;;;;;;14.87;75.45;101483.31;6395017;22;19998;-89
2022/06/22 23:40:30;;;;;;;16.48;8.32;;;;;;;14.82;75.79;101478.69;6395226;22;20002;-89
2022/06/22 23:43:27;;;;;;;14.88;8.25;;;;;;;14.77;75.91;101475.16;6393090;22;20581;-89
2022/06/22 23:45:54;;;;;;;15.52;8.52;;;;;;;14.74;75.98;101476.47;6380039;22;20033;-88
2022/06/22 23:48:29;;;;;;;14.02;7.97;;;;;;;14.65;75.97;101472.63;6395552;22;20005;-88
2022/06/22 23:51:16;;;;;;;33.40;9.20;;;;;;;14.65;76.40;101464.53;6392260;22;20002;-88
2022/06/22 23:53:48;;;;;;;13.35;8.68;;;;;;;14.62;76.58;101475.03;6394283;22;20005;-89
2022/06/22 23:56:38;;;;;;;13.27;8.93;;;;;;;14.53;76.50;101474.66;6367019;22;20408;-88
2022/06/22 23:59:07;;;;;;;19.23;8.40;;;;;;;14.49;76.70;101468.16;6395609;22;20036;-89
